Time;durP1;ratioP1;P1;durP2;ratioP2;P2;SDS_P1;SDS_P2;PMS_P1;PMS_P2;Temp;Humidity;BMP_temperature;BMP_pressure;BME280_temperature;BME280_humidity;BME280_pressure;Samples;Min_cycle;Max_cycle;Signal;HPM_P1;HPM_P2
2022/06/26 00:01:35;;;;;;;64.57;35.28;;;;;;;16.07;100.00;101068.47;5094756;28;20032;-48
2022/06/26 00:04:01;;;;;;;62.47;36.85;;;;;;;16.08;100.00;101070.22;5094262;28;20024;-48
2022/06/26 00:06:27;;;;;;;70.32;37.05;;;;;;;16.06;100.00;101082.34;5094666;28;20024;-48
2022/06/26 00:08:52;;;;;;;65.95;36.58;;;;;;;16.04;100.00;101084.06;5094647;28;20028;-48
2022/06/26 00:11:18;;;;;;;68.05;37.53;;;;;;;16.04;100.00;101089.25;5093801;28;20751;-48
2022/06/26 00:13:43;;;;;;;70.00;38.75;;;;;;;16.02;100.00;101084.91;5094339;28;20085;-50
2022/06/26 00:16:08;;;;;;;60.88;35.67;;;;;;;15.99;100.00;101087.47;5094224;28;20448;-50
2022/06/26 00:18:34;;;;;;;63.53;35.25;;;;;;;15.96;100.00;101083.13;5094093;28;20527;-48
2022/06/26 00:20:59;;;;;;;60.58;35.45;;;;;;;15.93;100.00;101091.75;5093914;28;20028;-48
2022/06/26 00:23:24;;;;;;;64.80;37.35;;;;;;;15.98;100.00;101096.13;5093299;28;20047;-47
2022/06/26 00:25:50;;;;;;;67.68;38.25;;;;;;;15.99;100.00;101100.47;5093727;28;20020;-49
2022/06/26 00:28:15;;;;;;;74.20;40.67;;;;;;;16.01;100.00;101106.53;5094234;28;20348;-47
2022/06/26 00:30:40;;;;;;;65.03;38.47;;;;;;;15.97;100.00;101103.03;5094461;28;20024;-48
2022/06/26 00:33:06;;;;;;;70.45;39.10;;;;;;;15.98;100.00;101111.72;5093641;28;20024;-48
2022/06/26 00:35:31;;;;;;;63.10;36.67;;;;;;;15.89;100.00;101107.28;5093936;28;20434;-48
2022/06/26 00:37:56;;;;;;;62.65;35.30;;;;;;;15.87;100.00;101103.78;5094109;28;20111;-50
2022/06/26 00:40:22;;;;;;;74.00;38.90;;;;;;;15.90;100.00;101115.09;5093482;28;20096;-47
2022/06/26 00:42:47;;;;;;;65.82;37.58;;;;;;;15.88;100.00;101118.53;5093750;28;20111;-47
2022/06/26 00:45:12;;;;;;;67.32;37.97;;;;;;;15.88;100.00;101115.91;5093952;28;20475;-47
2022/06/26 00:47:38;;;;;;;73.22;41.00;;;;;;;15.89;100.00;101123.72;5093329;28;20103;-48
2022/06/26 00:50:05;;;;;;;73.55;39.92;;;;;;;15.89;100.00;101130.66;5093462;28;20031;-48
2022/06/26 00:52:32;;;;;;;78.50;42.05;;;;;;;15.88;100.00;101128.91;5093924;28;20119;-48
2022/06/26 00:54:57;;;;;;;81.68;42.58;;;;;;;15.87;100.00;101132.38;5093199;28;20043;-48
2022/06/26 00:57:23;;;;;;;76.07;42.75;;;;;;;15.83;100.00;101139.28;5093337;28;20464;-51
2022/06/26 00:59:48;;;;;;;81.25;41.85;;;;;;;15.82;100.00;101149.66;5093476;28;20054;-48
2022/06/26 01:02:14;;;;;;;82.68;43.83;;;;;;;15.80;100.00;101147.88;5093106;28;20379;-48
2022/06/26 01:04:39;;;;;;;81.70;43.35;;;;;;;15.82;100.00;101144.47;5093584;28;20103;-47
2022/06/26 01:07:05;;;;;;;84.43;44.03;;;;;;;15.82;100.00;101147.06;5093386;28;20039;-51
2022/06/26 01:09:31;;;;;;;92.30;45.67;;;;;;;15.86;100.00;101141.03;5093060;28;20020;-48
2022/06/26 01:11:57;;;;;;;78.88;41.85;;;;;;;15.89;100.00;101135.88;5093054;28;20035;-50
2022/06/26 01:14:22;;;;;;;79.85;43.22;;;;;;;15.89;100.00;101141.94;5093053;28;20117;-47
2022/06/26 01:16:47;;;;;;;87.35;41.38;;;;;;;15.89;100.00;101148.88;5093364;28;20024;-49
2022/06/26 01:19:18;;;;;;;80.93;40.17;;;;;;;15.86;100.00;101147.09;5093082;28;20031;-51
2022/06/26 01:21:44;;;;;;;72.72;37.72;;;;;;;15.86;100.00;101146.25;5092936;28;20045;-48
2022/06/26 01:24:10;;;;;;;74.75;39.00;;;;;;;15.89;100.00;101147.13;5092774;28;20119;-48
2022/06/26 01:26:36;;;;;;;77.40;37.75;;;;;;;15.87;100.00;101158.34;5093173;28;20032;-47
2022/06/26 01:29:03;;;;;;;76.32;37.35;;;;;;;15.85;100.00;101162.69;5092747;28;20028;-48
2022/06/26 01:31:28;;;;;;;81.80;36.78;;;;;;;15.85;100.00;101165.28;5093044;28;20035;-47
2022/06/26 01:33:54;;;;;;;72.53;37.22;;;;;;;15.84;100.00;101167.03;5093043;28;20387;-47
2022/06/26 01:36:19;;;;;;;81.65;40.47;;;;;;;15.83;100.00;101161.78;5092375;28;20024;-51
2022/06/26 01:38:45;;;;;;;87.20;41.15;;;;;;;15.80;100.00;101163.47;5092912;28;20394;-48
2022/06/26 01:41:10;;;;;;;87.00;42.35;;;;;;;15.78;100.00;101159.97;5092708;28;20032;-48
2022/06/26 01:43:37;;;;;;;88.45;42.63;;;;;;;15.74;100.00;101162.53;5092640;28;20085;-47
2022/06/26 01:46:04;;;;;;;91.80;43.97;;;;;;;15.69;100.00;101159.84;5092771;28;20039;-51
2022/06/26 01:48:32;;;;;;;91.53;44.58;;;;;;;15.67;100.00;101166.72;5093056;28;20062;-47
2022/06/26 01:50:59;;;;;;;93.15;44.50;;;;;;;15.65;100.00;101163.25;5092344;28;20028;-47
2022/06/26 01:53:25;;;;;;;101.70;46.55;;;;;;;15.63;100.00;101164.94;5092648;28;20047;-49
2022/06/26 01:55:50;;;;;;;102.38;46.22;;;;;;;15.59;100.00;101161.44;5092811;28;20028;-49
2022/06/26 01:58:16;;;;;;;94.78;45.35;;;;;;;15.59;100.00;101155.38;5092119;28;20044;-47
2022/06/26 02:00:43;;;;;;;95.65;46.22;;;;;;;15.55;100.00;101159.66;5092552;28;20047;-48
2022/06/26 02:03:09;;;;;;;89.55;41.42;;;;;;;15.48;100.00;101155.22;5092521;28;20539;-48
2022/06/26 02:05:35;;;;;;;98.47;43.95;;;;;;;15.46;100.00;101149.13;5092338;28;20106;-47
2022/06/26 02:08:01;;;;;;;98.55;43.90;;;;;;;15.41;100.00;101143.84;5092331;28;20032;-48
2022/06/26 02:15:57;;;;;;;100.85;46.50;;;;;;;15.35;100.00;101143.78;5093007;28;20034;-48
2022/06/26 02:18:22;;;;;;;105.43;45.85;;;;;;;15.34;100.00;101134.25;5092089;28;20024;-49
2022/06/26 02:20:48;;;;;;;104.35;46.13;;;;;;;15.33;100.00;101127.31;5092472;28;20386;-48
2022/06/26 02:23:14;;;;;;;101.80;47.00;;;;;;;15.34;100.00;101123.88;5092645;28;20113;-51
2022/06/26 02:25:41;;;;;;;118.43;48.58;;;;;;;15.34;100.00;101129.06;5092251;28;20174;-49
2022/06/26 02:28:06;;;;;;;111.72;48.20;;;;;;;15.36;100.00;101124.75;5092176;28;20032;-48
2022/06/26 02:30:32;;;;;;;109.97;48.40;;;;;;;15.33;100.00;101129.91;5092435;28;20388;-47
2022/06/26 02:32:57;;;;;;;98.88;44.88;;;;;;;15.36;100.00;101129.94;5091898;28;20042;-48
2022/06/26 02:35:24;;;;;;;106.82;46.50;;;;;;;15.36;100.00;101131.66;5092193;28;20376;-50
2022/06/26 02:37:50;;;;;;;104.93;44.28;;;;;;;15.35;100.00;101133.41;5092515;28;20375;-47
2022/06/26 02:40:15;;;;;;;121.85;47.95;;;;;;;15.31;100.00;101148.06;5091881;28;20032;-49
2022/06/26 02:42:41;;;;;;;113.60;46.05;;;;;;;15.32;100.00;101154.13;5092427;28;20093;-49
2022/06/26 02:45:07;;;;;;;103.93;46.72;;;;;;;15.29;100.00;101160.13;5092599;28;20028;-48
2022/06/26 02:47:33;;;;;;;110.78;48.10;;;;;;;15.27;100.00;101160.97;5095557;28;20020;-47
2022/06/26 02:49:58;;;;;;;98.97;44.38;;;;;;;15.24;100.00;101166.13;5095681;28;20020;-48
2022/06/26 02:52:23;;;;;;;111.85;47.00;;;;;;;15.21;100.00;101163.47;5096315;28;20043;-47
2022/06/26 02:54:49;;;;;;;103.50;44.25;;;;;;;15.14;100.00;101165.09;5095764;28;20012;-49
2022/06/26 02:57:14;;;;;;;87.28;40.60;;;;;;;15.03;100.00;101171.81;5095712;28;20024;-48
2022/06/26 02:59:40;;;;;;;82.35;36.83;;;;;;;14.89;100.00;101169.88;5095926;28;20048;-48
2022/06/26 03:02:05;;;;;;;80.75;35.33;;;;;;;14.83;100.00;101182.75;5095148;28;20024;-47
2022/06/26 03:04:30;;;;;;;74.00;33.00;;;;;;;14.73;100.00;101178.25;5095836;28;20067;-48
2022/06/26 03:06:56;;;;;;;75.22;33.25;;;;;;;14.67;100.00;101178.13;5095284;28;20036;-50
2022/06/26 03:09:21;;;;;;;80.70;35.15;;;;;;;14.63;100.00;101184.97;5095658;28;20024;-48
2022/06/26 03:11:46;;;;;;;77.88;33.70;;;;;;;14.54;100.00;101182.19;5095741;28;20028;-47
2022/06/26 03:14:11;;;;;;;78.88;33.20;;;;;;;14.49;100.00;101180.38;5094950;28;20105;-47
2022/06/26 03:16:37;;;;;;;85.07;35.33;;;;;;;14.43;100.00;101175.06;5095387;28;20027;-47
2022/06/26 03:19:02;;;;;;;77.22;34.10;;;;;;;14.40;100.00;101193.19;5095371;28;20027;-49
2022/06/26 03:21:28;;;;;;;74.22;31.77;;;;;;;14.34;100.00;101195.66;5094913;28;20390;-49
2022/06/26 03:24:03;;;;;;;82.57;33.63;;;;;;;14.32;100.00;101205.13;5095408;28;20024;-48
2022/06/26 03:26:32;;;;;;;81.13;33.17;;;;;;;14.26;100.00;101205.00;5095568;28;20024;-51
2022/06/26 03:28:59;;;;;;;83.60;34.55;;;;;;;14.21;100.00;101199.72;5094923;28;20027;-48
2022/06/26 03:31:24;;;;;;;76.70;32.88;;;;;;;14.20;100.00;101202.28;5095019;28;20028;-47
2022/06/26 03:33:50;;;;;;;77.82;32.70;;;;;;;14.16;100.00;101204.81;5095564;28;20034;-47
2022/06/26 03:36:16;;;;;;;72.25;30.63;;;;;;;14.14;100.00;101203.03;5094521;28;20032;-51
2022/06/26 03:38:42;;;;;;;77.47;32.88;;;;;;;14.09;100.00;101205.53;5095237;28;20059;-47
2022/06/26 03:41:08;;;;;;;72.28;31.08;;;;;;;14.09;100.00;101226.25;5095173;28;20030;-48
2022/06/26 03:43:33;;;;;;;72.80;31.52;;;;;;;14.06;100.00;101236.56;5094607;28;20020;-48
2022/06/26 03:45:58;;;;;;;75.72;31.30;;;;;;;14.03;100.00;101241.69;5094608;28;20058;-48
2022/06/26 03:48:23;;;;;;;77.00;32.63;;;;;;;13.98;100.00;101239.00;5094880;28;20031;-48
2022/06/26 03:50:50;;;;;;;72.20;31.02;;;;;;;13.99;100.00;101245.06;5094413;28;20037;-47
2022/06/26 03:53:16;;;;;;;73.97;30.07;;;;;;;13.95;100.00;101249.28;5094560;28;20038;-48
2022/06/26 03:55:42;;;;;;;79.35;29.80;;;;;;;13.93;100.00;101239.72;5095000;28;20024;-48
2022/06/26 03:58:07;;;;;;;70.60;30.80;;;;;;;13.90;100.00;101248.31;5093782;28;20122;-48
2022/06/26 04:00:32;;;;;;;66.53;29.67;;;;;;;13.87;100.00;101249.97;5094678;28;20059;-47
2022/06/26 04:02:57;;;;;;;78.80;30.23;;;;;;;13.86;100.00;101248.22;5094891;28;20101;-47
2022/06/26 04:05:23;;;;;;;69.32;30.40;;;;;;;13.84;100.00;101245.59;5093812;28;20024;-47
2022/06/26 04:07:48;;;;;;;69.38;30.23;;;;;;;13.86;100.00;101243.03;5094522;28;20024;-48
2022/06/26 04:10:14;;;;;;;76.18;30.08;;;;;;;13.82;100.00;101237.78;5093977;28;20027;-47
2022/06/26 04:12:39;;;;;;;75.13;31.20;;;;;;;13.85;100.00;101225.75;5094434;28;20028;-48
2022/06/26 04:15:05;;;;;;;69.78;29.27;;;;;;;13.80;100.00;101234.28;5094295;28;20028;-48
2022/06/26 04:17:31;;;;;;;71.88;29.85;;;;;;;13.81;100.00;101246.41;5093795;28;20463;-47
2022/06/26 04:19:56;;;;;;;76.13;29.75;;;;;;;13.83;100.00;101238.66;5094056;28;20028;-48
2022/06/26 04:22:22;;;;;;;71.90;29.10;;;;;;;13.81;100.00;101243.81;5094484;28;20073;-48
2022/06/26 04:24:47;;;;;;;68.03;26.63;;;;;;;13.82;100.00;101247.28;5094013;28;20031;-47
2022/06/26 04:27:13;;;;;;;67.35;27.77;;;;;;;13.82;100.00;101248.13;5093775;28;20032;-47
2022/06/26 04:29:38;;;;;;;61.42;27.23;;;;;;;13.81;100.00;101250.69;5094179;28;20035;-47
2022/06/26 04:32:04;;;;;;;66.22;27.33;;;;;;;13.80;100.00;101265.38;5093470;28;20032;-49
2022/06/26 04:34:29;;;;;;;61.22;26.52;;;;;;;13.81;100.00;101267.13;5094050;28;20024;-48
2022/06/26 04:36:54;;;;;;;67.13;26.08;;;;;;;13.80;100.00;101273.16;5094346;28;20031;-47
2022/06/26 04:39:20;;;;;;;67.55;26.10;;;;;;;13.79;100.00;101279.16;5093207;28;20034;-48
2022/06/26 04:41:45;;;;;;;56.67;25.15;;;;;;;13.78;100.00;101280.00;5093943;28;20031;-48
2022/06/26 04:44:12;;;;;;;67.85;26.05;;;;;;;13.77;100.00;101286.00;5093767;28;20395;-47
2022/06/26 04:46:39;;;;;;;60.40;24.48;;;;;;;13.79;100.00;101284.34;5093333;28;20479;-47
2022/06/26 04:49:05;;;;;;;64.05;26.35;;;;;;;13.82;100.00;101289.59;5093744;28;20111;-47
2022/06/26 04:51:30;;;;;;;63.78;25.00;;;;;;;13.85;100.00;101306.91;5093718;28;20099;-47
2022/06/26 04:53:56;;;;;;;59.50;24.10;;;;;;;13.89;100.00;101306.19;5093050;28;20030;-48
2022/06/26 04:56:21;;;;;;;57.92;24.90;;;;;;;13.95;100.00;101306.28;5093559;28;20467;-48
2022/06/26 04:58:46;;;;;;;59.05;24.08;;;;;;;13.94;100.00;101304.56;5093534;28;20494;-49
2022/06/26 05:01:12;;;;;;;57.15;24.42;;;;;;;13.98;100.00;101310.66;5092883;28;20081;-47
2022/06/26 05:03:37;;;;;;;57.47;24.48;;;;;;;13.99;100.00;101307.25;5093609;28;20086;-48
2022/06/26 05:06:03;;;;;;;58.22;24.13;;;;;;;14.05;100.00;101296.16;5093431;28;20474;-47
2022/06/26 05:08:28;;;;;;;60.70;24.67;;;;;;;14.07;100.00;101305.72;5092133;28;20028;-47
2022/06/26 05:10:53;;;;;;;56.90;24.63;;;;;;;14.09;100.00;101311.78;5094072;28;20024;-48
2022/06/26 05:13:19;;;;;;;64.15;23.40;;;;;;;14.14;100.00;101302.41;5093217;28;20035;-48
2022/06/26 05:15:46;;;;;;;60.30;23.83;;;;;;;14.18;100.00;101312.84;5092728;28;20458;-48
2022/06/26 05:18:12;;;;;;;60.40;23.65;;;;;;;14.16;100.00;101311.09;5093335;28;20036;-48
2022/06/26 05:20:37;;;;;;;55.35;24.52;;;;;;;14.14;100.00;101312.78;5092995;28;20024;-48
2022/06/26 05:23:02;;;;;;;56.92;23.95;;;;;;;14.16;100.00;101313.69;5093014;28;20028;-47
2022/06/26 05:25:28;;;;;;;57.70;24.70;;;;;;;14.19;100.00;101312.00;5093260;28;20031;-47
2022/06/26 05:27:53;;;;;;;57.97;24.27;;;;;;;14.18;100.00;101312.84;5092579;28;20028;-48
2022/06/26 05:30:18;;;;;;;55.28;23.50;;;;;;;14.16;100.00;101305.03;5092591;28;20046;-48
2022/06/26 05:32:44;;;;;;;68.03;23.92;;;;;;;14.19;100.00;101305.13;5093364;28;20028;-48
2022/06/26 05:35:09;;;;;;;55.05;23.92;;;;;;;14.24;100.00;101300.00;5092482;28;20430;-47
2022/06/26 05:37:35;;;;;;;59.92;23.48;;;;;;;14.27;100.00;101300.09;5092855;28;20487;-47
2022/06/26 05:40:00;;;;;;;56.35;22.55;;;;;;;14.32;100.00;101295.88;5092999;28;20024;-47
2022/06/26 05:42:25;;;;;;;61.03;22.05;;;;;;;14.37;100.00;101309.81;5092405;28;20032;-47
2022/06/26 05:44:51;;;;;;;55.50;22.83;;;;;;;14.41;100.00;101311.63;5092749;28;20028;-47
2022/06/26 05:47:16;;;;;;;59.85;22.17;;;;;;;14.44;100.00;101321.19;5092834;28;20034;-48
2022/06/26 05:49:41;;;;;;;55.72;23.55;;;;;;;14.48;100.00;101325.59;5092345;28;20031;-49
2022/06/26 05:52:07;;;;;;;57.90;21.25;;;;;;;14.52;100.00;101326.53;5092663;28;20085;-49
2022/06/26 05:54:32;;;;;;;66.57;22.80;;;;;;;14.56;100.00;101341.31;5092872;28;20031;-48
2022/06/26 05:56:57;;;;;;;64.95;22.17;;;;;;;14.66;100.00;101348.50;5092120;28;20047;-49
2022/06/26 05:59:23;;;;;;;56.38;22.42;;;;;;;14.77;100.00;101349.59;5092339;28;20074;-47
2022/06/26 06:01:48;;;;;;;53.80;22.25;;;;;;;14.87;100.00;101357.56;5093023;28;20051;-48
2022/06/26 06:04:14;;;;;;;58.63;20.73;;;;;;;15.00;100.00;101351.75;5092025;28;20505;-47
2022/06/26 06:06:39;;;;;;;45.78;20.33;;;;;;;15.18;100.00;101347.78;5092483;28;20468;-48
2022/06/26 06:09:05;;;;;;;42.85;18.63;;;;;;;15.21;100.00;101353.00;5092637;28;20086;-47
2022/06/26 06:11:30;;;;;;;50.50;19.17;;;;;;;15.25;100.00;101360.03;5091846;28;20024;-48
2022/06/26 06:13:55;;;;;;;48.75;19.33;;;;;;;15.29;99.93;101367.03;5092474;28;20032;-49
2022/06/26 06:16:20;;;;;;;45.45;18.75;;;;;;;15.35;99.72;101361.06;5092734;28;20050;-48
2022/06/26 06:18:46;;;;;;;44.58;19.15;;;;;;;15.45;100.00;101352.56;5092139;28;20103;-48
2022/06/26 06:21:11;;;;;;;43.88;17.50;;;;;;;15.53;97.80;101353.59;5094452;28;20031;-48
2022/06/26 06:23:37;;;;;;;48.00;18.40;;;;;;;15.67;97.26;101356.41;5096954;28;20077;-49
2022/06/26 06:26:03;;;;;;;43.70;16.88;;;;;;;15.77;97.30;101354.84;5095820;28;20024;-48
2022/06/26 06:28:28;;;;;;;40.97;17.73;;;;;;;15.90;96.35;101346.44;5096476;28;20073;-48
2022/06/26 06:30:53;;;;;;;40.70;15.77;;;;;;;16.02;96.92;101356.13;5096153;28;20055;-47
2022/06/26 06:33:18;;;;;;;47.50;17.00;;;;;;;16.07;94.87;101341.47;5096311;28;20533;-48
2022/06/26 06:35:44;;;;;;;45.58;17.35;;;;;;;16.16;94.54;101353.75;5096510;28;20031;-48
2022/06/26 06:38:09;;;;;;;42.50;16.77;;;;;;;16.21;94.14;101357.28;5095626;28;20028;-47
2022/06/26 06:40:35;;;;;;;36.70;16.30;;;;;;;16.26;92.67;101370.38;5096231;28;20028;-48
2022/06/26 06:43:00;;;;;;;34.70;15.48;;;;;;;16.32;92.90;101379.97;5096233;28;20047;-48
2022/06/26 06:45:26;;;;;;;48.03;16.67;;;;;;;16.38;93.06;101367.94;5095642;28;20027;-49
2022/06/26 06:47:51;;;;;;;37.88;15.07;;;;;;;16.43;92.12;101376.66;5096087;28;20024;-48
2022/06/26 06:50:16;;;;;;;42.80;14.90;;;;;;;16.42;91.40;101381.84;5096015;28;20020;-49
2022/06/26 06:52:42;;;;;;;33.95;14.98;;;;;;;16.44;90.97;101394.03;5095734;28;20032;-47
2022/06/26 06:55:07;;;;;;;37.38;14.38;;;;;;;16.42;90.81;101400.97;5095701;28;20100;-48
2022/06/26 06:57:33;;;;;;;36.30;14.95;;;;;;;16.41;91.63;101404.41;5095713;28;20047;-48
2022/06/26 06:59:58;;;;;;;43.22;16.73;;;;;;;16.49;90.98;101411.44;5095284;28;20031;-48
2022/06/26 07:02:24;;;;;;;36.13;15.90;;;;;;;16.49;90.12;101424.44;5095842;28;20459;-48
2022/06/26 07:04:49;;;;;;;36.22;15.20;;;;;;;16.56;92.15;101426.28;5095842;28;20115;-47
2022/06/26 07:07:14;;;;;;;37.22;15.55;;;;;;;16.62;89.59;101434.19;5095218;28;20031;-48
2022/06/26 07:09:40;;;;;;;42.42;16.55;;;;;;;16.65;90.14;101436.81;5095807;28;20103;-48
2022/06/26 07:12:05;;;;;;;47.10;16.05;;;;;;;16.74;89.88;101442.16;5095621;28;20115;-47
2022/06/26 07:14:31;;;;;;;34.65;16.05;;;;;;;16.83;88.67;101445.75;5095196;28;20024;-48
2022/06/26 07:16:56;;;;;;;38.47;15.23;;;;;;;16.97;88.84;101443.38;5095501;28;20020;-49
2022/06/26 07:19:21;;;;;;;33.83;15.50;;;;;;;17.01;86.45;101445.16;5095704;28;20152;-48
2022/06/26 07:21:47;;;;;;;33.80;15.57;;;;;;;16.94;87.23;101444.19;5095049;28;20028;-48
2022/06/26 07:24:14;;;;;;;30.17;14.88;;;;;;;16.91;87.75;101449.34;5095397;28;20126;-48
2022/06/26 07:26:40;;;;;;;34.28;14.52;;;;;;;17.00;87.05;101439.03;5095432;28;20032;-48
2022/06/26 07:29:06;;;;;;;30.20;13.35;;;;;;;17.16;86.76;101440.13;5094427;28;20495;-49
2022/06/26 07:31:31;;;;;;;35.08;15.30;;;;;;;17.21;87.26;101442.75;5095035;28;20031;-48
2022/06/26 07:34:12;;;;;;;31.85;14.90;;;;;;;17.40;86.24;101442.13;5095385;28;20016;-48
2022/06/26 07:36:37;;;;;;;32.03;14.43;;;;;;;17.48;85.43;101449.16;5095244;28;20047;-48
2022/06/26 07:39:03;;;;;;;33.70;14.77;;;;;;;17.60;85.73;101446.69;5095122;28;20376;-48
2022/06/26 07:41:29;;;;;;;31.88;15.15;;;;;;;17.71;84.28;101458.06;5094589;28;20034;-48
2022/06/26 07:43:54;;;;;;;31.50;14.60;;;;;;;17.66;83.78;101451.94;5094892;28;20482;-49
2022/06/26 07:46:20;;;;;;;29.67;13.55;;;;;;;17.72;83.63;101445.91;5095019;28;20482;-49
2022/06/26 07:48:45;;;;;;;33.03;13.68;;;;;;;17.62;83.25;101452.75;5094761;28;20472;-47
2022/06/26 07:51:10;;;;;;;29.48;14.15;;;;;;;17.50;82.80;101452.66;5094671;28;20028;-47
2022/06/26 07:53:36;;;;;;;35.78;14.90;;;;;;;17.54;84.82;101462.25;5094961;28;20073;-46
2022/06/26 07:56:03;;;;;;;29.83;14.88;;;;;;;17.36;83.08;101453.38;5094338;28;20452;-47
2022/06/26 07:58:28;;;;;;;28.52;13.80;;;;;;;17.42;84.07;101458.66;5094496;28;20066;-47
2022/06/26 08:00:53;;;;;;;29.10;12.98;;;;;;;17.50;82.48;101455.25;5095280;28;20107;-48
2022/06/26 08:03:18;;;;;;;27.10;12.60;;;;;;;17.51;81.75;101464.84;5094049;28;20024;-48
2022/06/26 08:05:45;;;;;;;28.35;12.75;;;;;;;17.48;81.97;101470.00;5094760;28;20031;-48
2022/06/26 08:08:10;;;;;;;25.75;12.32;;;;;;;17.59;81.38;101468.38;5094309;28;20365;-49
2022/06/26 08:10:36;;;;;;;30.48;12.27;;;;;;;17.62;81.71;101473.63;5094023;28;20536;-48
2022/06/26 08:13:03;;;;;;;22.50;11.85;;;;;;;17.67;80.37;101474.53;5094541;28;20027;-48
2022/06/26 08:15:28;;;;;;;30.98;12.52;;;;;;;17.62;81.14;101481.44;5094640;28;20250;-49
2022/06/26 08:17:54;;;;;;;27.13;12.57;;;;;;;17.66;80.88;101475.38;5093891;28;20372;-50
2022/06/26 08:20:20;;;;;;;22.80;12.00;;;;;;;17.73;81.34;101479.81;5094285;28;20491;-49
2022/06/26 08:22:45;;;;;;;24.10;12.20;;;;;;;17.66;79.85;101475.38;5094395;28;20024;-50
2022/06/26 08:25:10;;;;;;;22.73;12.50;;;;;;;17.61;81.29;101479.69;5093373;28;20032;-50
2022/06/26 08:27:36;;;;;;;23.85;12.85;;;;;;;17.64;81.21;101482.34;5094504;28;20020;-49
2022/06/26 08:30:02;;;;;;;23.15;12.73;;;;;;;17.60;82.33;101481.44;5094347;28;20035;-49
2022/06/26 08:32:27;;;;;;;26.10;12.75;;;;;;;17.62;82.62;101491.88;5093688;28;20103;-52
2022/06/26 08:34:52;;;;;;;27.38;12.15;;;;;;;17.69;83.27;101485.88;5094390;28;20488;-50
2022/06/26 08:37:18;;;;;;;27.33;11.77;;;;;;;17.96;83.31;101480.94;5093970;28;20039;-49
2022/06/26 08:39:43;;;;;;;22.77;12.00;;;;;;;18.01;81.61;101469.69;5093224;28;20027;-49
2022/06/26 08:42:09;;;;;;;21.50;12.52;;;;;;;18.05;80.81;101476.69;5094005;28;20035;-52
2022/06/26 08:44:44;;;;;;;21.40;11.48;;;;;;;18.04;77.65;101474.94;5092837;28;20032;-49
2022/06/26 08:47:11;;;;;;;20.77;12.57;;;;;;;17.92;78.46;101480.88;5093561;28;20113;-49
2022/06/26 08:49:37;;;;;;;25.33;13.65;;;;;;;17.81;79.21;101490.31;5093960;28;20035;-48
2022/06/26 08:52:03;;;;;;;29.77;13.00;;;;;;;17.73;79.77;101500.69;5093255;28;20016;-50
2022/06/26 08:54:30;;;;;;;23.92;12.75;;;;;;;17.75;80.14;101501.59;5093500;28;20028;-51
2022/06/26 08:56:56;;;;;;;26.57;12.50;;;;;;;17.72;79.97;101488.50;5093893;28;20059;-52
2022/06/26 08:59:22;;;;;;;27.00;12.85;;;;;;;17.80;79.57;101495.53;5093024;28;20040;-49
2022/06/26 09:01:47;;;;;;;23.30;13.43;;;;;;;17.75;78.90;101498.97;5093525;28;20028;-49
2022/06/26 09:04:13;;;;;;;24.02;12.93;;;;;;;17.81;79.10;101498.16;5093471;28;20036;-50
2022/06/26 09:06:41;;;;;;;23.55;12.07;;;;;;;17.88;78.92;101493.88;5092961;28;20031;-49
2022/06/26 09:09:22;;;;;;;20.88;11.55;;;;;;;17.91;78.46;101501.72;5093098;28;20076;-51
2022/06/26 09:11:48;;;;;;;29.65;11.88;;;;;;;17.87;77.34;101502.53;5093702;28;20031;-49
2022/06/26 09:14:14;;;;;;;23.55;12.48;;;;;;;17.86;77.98;101500.81;5092375;28;20020;-49
2022/06/26 09:16:45;;;;;;;26.25;11.52;;;;;;;17.85;77.30;101499.91;5093485;28;20119;-49
2022/06/26 09:19:20;;;;;;;24.63;12.35;;;;;;;17.92;78.37;101490.41;5093299;28;20020;-51
2022/06/26 09:21:50;;;;;;;19.88;11.05;;;;;;;17.96;76.58;101497.47;5092856;28;20028;-49
2022/06/26 09:24:20;;;;;;;20.13;10.35;;;;;;;17.99;76.52;101494.88;5093141;28;20059;-51
2022/06/26 09:27:10;;;;;;;21.77;11.68;;;;;;;18.01;77.91;101485.34;5092649;28;20409;-52
2022/06/26 09:29:36;;;;;;;22.63;12.70;;;;;;;18.16;76.27;101478.50;5093049;28;20039;-50
2022/06/26 09:32:13;;;;;;;21.13;12.07;;;;;;;18.15;76.84;101492.41;5093003;28;20054;-50
2022/06/26 09:34:44;;;;;;;23.40;12.65;;;;;;;18.18;77.27;101506.34;5093006;28;20028;-48
2022/06/26 09:37:10;;;;;;;20.58;11.30;;;;;;;18.21;77.19;101502.91;5092829;28;20027;-50
2022/06/26 09:39:36;;;;;;;24.10;11.73;;;;;;;18.20;76.75;101511.59;5093060;28;20454;-49
2022/06/26 09:42:17;;;;;;;20.00;11.68;;;;;;;18.30;77.22;101502.97;5092236;28;20026;-51
2022/06/26 09:44:50;;;;;;;24.60;10.98;;;;;;;18.34;75.22;101491.69;5093275;28;20046;-49
2022/06/26 09:47:30;;;;;;;28.90;11.45;;;;;;;18.38;75.09;101506.50;5092616;28;20035;-49
2022/06/26 09:49:59;;;;;;;15.57;8.98;;;;;;;18.22;74.04;101515.09;5092119;28;20057;-51
2022/06/26 09:52:27;;;;;;;21.85;10.90;;;;;;;18.21;73.47;101500.28;5092909;28;20024;-49
2022/06/26 09:54:53;;;;;;;18.73;10.73;;;;;;;18.23;74.86;101507.28;5092105;28;20042;-49
2022/06/26 09:57:19;;;;;;;27.50;11.73;;;;;;;18.19;74.73;101499.41;5092946;28;20058;-49
2022/06/26 09:59:45;;;;;;;19.02;10.73;;;;;;;18.29;76.12;101506.44;5092657;28;20040;-49
2022/06/26 10:07:50;;;;;;;20.60;9.52;;;;;;;18.46;73.06;101522.22;5092808;28;20047;-51
2022/06/26 10:10:19;;;;;;;16.65;10.45;;;;;;;18.72;72.19;101525.03;5091943;28;20028;-51
2022/06/26 10:12:47;;;;;;;19.38;10.35;;;;;;;18.72;72.58;101524.16;5092834;28;20024;-50
2022/06/26 10:15:15;;;;;;;22.25;10.50;;;;;;;18.84;70.64;101526.00;5092468;28;20030;-48
2022/06/26 10:18:10;;;;;;;15.23;7.45;;;;;;;18.90;70.87;101534.75;5091961;28;20103;-50
2022/06/26 10:20:37;;;;;;;26.48;9.77;;;;;;;18.95;70.26;101529.56;5092913;28;20028;-49
2022/06/26 10:23:02;;;;;;;48.38;14.77;;;;;;;18.87;66.41;101542.53;5092152;28;20034;-48
2022/06/26 10:25:29;;;;;;;21.05;8.80;;;;;;;18.75;67.93;101545.06;5092365;28;20020;-49
2022/06/26 10:27:56;;;;;;;21.95;7.43;;;;;;;18.68;69.49;101546.78;5092539;28;20111;-50
2022/06/26 10:30:24;;;;;;;13.40;7.03;;;;;;;18.86;69.28;101539.91;5091820;28;20024;-48
2022/06/26 10:33:11;;;;;;;16.77;6.47;;;;;;;19.11;70.92;101529.63;5092590;28;20020;-48
2022/06/26 10:35:41;;;;;;;14.27;6.30;;;;;;;19.42;68.59;101528.91;5092625;28;20077;-48
2022/06/26 10:38:24;;;;;;;14.27;6.32;;;;;;;19.55;68.88;101540.28;5091792;28;20030;-51
2022/06/26 10:44:03;;;;;;;13.05;5.18;;;;;;;19.73;67.17;101534.25;5092721;28;20093;-49
2022/06/26 10:46:47;;;;;;;12.52;5.80;;;;;;;19.81;66.61;101536.00;5091968;28;20082;-49
2022/06/26 10:49:13;;;;;;;12.23;5.65;;;;;;;19.84;65.39;101533.41;5092119;28;20036;-49
2022/06/26 10:51:41;;;;;;;14.00;6.72;;;;;;;19.82;64.56;101537.75;5092072;28;20024;-48
2022/06/26 10:54:21;;;;;;;16.33;6.97;;;;;;;19.95;64.51;101542.16;5092160;28;20031;-49
2022/06/26 10:56:54;;;;;;;11.82;6.07;;;;;;;20.23;64.60;101531.72;5092485;28;20038;-53
2022/06/26 10:59:21;;;;;;;9.93;5.78;;;;;;;20.34;61.77;101539.59;5091097;28;20063;-53
2022/06/26 11:01:46;;;;;;;;;;;;;;;20.59;63.92;101531.72;5092983;28;20020;-53
2022/06/26 11:04:12;;;;;;;18.53;7.27;;;;;;;20.65;63.07;101539.56;5091920;28;19919;-53
2022/06/26 11:06:42;;;;;;;15.38;6.55;;;;;;;20.71;61.12;101543.09;5092407;28;20042;-53
2022/06/26 11:09:08;;;;;;;19.15;6.88;;;;;;;20.60;60.00;101538.72;5095839;28;20050;-53
2022/06/26 11:11:34;;;;;;;14.52;6.35;;;;;;;20.34;61.06;101543.06;5095964;28;20035;-53
2022/06/26 11:14:08;;;;;;;19.67;6.13;;;;;;;20.29;61.50;101538.72;5094863;28;20021;-54
2022/06/26 11:16:35;;;;;;;14.05;5.90;;;;;;;20.60;61.49;101534.31;5096138;28;20051;-53